createdAt,value
2022-08-17T00:00:34.336Z,20.80
2022-08-17T00:03:10.086Z,20.80
2022-08-17T00:05:41.404Z,20.70
2022-08-17T00:08:09.618Z,20.70
2022-08-17T00:10:37.744Z,20.70
2022-08-17T00:13:10.389Z,20.60
2022-08-17T00:15:38.884Z,20.60
2022-08-17T00:19:05.752Z,20.60
2022-08-17T00:20:58.620Z,20.60
2022-08-17T00:23:27.801Z,20.60
2022-08-17T00:25:56.295Z,20.70
2022-08-17T00:28:25.168Z,20.60
2022-08-17T00:30:54.022Z,20.50
2022-08-17T00:33:27.161Z,20.40
2022-08-17T00:35:56.621Z,20.40
2022-08-17T00:38:25.569Z,20.40
2022-08-17T00:40:59.152Z,20.50
2022-08-17T00:43:31.998Z,20.50
2022-08-17T00:46:01.681Z,20.60
2022-08-17T00:48:32.313Z,20.50
2022-08-17T00:51:05.760Z,20.40
2022-08-17T00:53:36.879Z,20.30
2022-08-17T00:56:09.294Z,20.30
2022-08-17T00:58:38.597Z,20.30
2022-08-17T01:01:10.037Z,20.30
2022-08-17T01:03:41.569Z,20.10
2022-08-17T01:06:10.264Z,20.10
2022-08-17T01:08:40.463Z,20.10
2022-08-17T01:11:09.052Z,20.20
2022-08-17T01:13:41.586Z,20.20
2022-08-17T01:16:17.281Z,20.20
2022-08-17T01:18:49.885Z,20.20
2022-08-17T01:21:25.657Z,20.20
2022-08-17T01:23:55.344Z,20.20
2022-08-17T01:26:24.344Z,20.30
2022-08-17T01:28:54.417Z,20.40
2022-08-17T01:31:25.386Z,20.30
2022-08-17T01:33:53.569Z,20.30
2022-08-17T01:36:22.439Z,20.20
2022-08-17T01:38:50.622Z,20.10
2022-08-17T01:41:22.943Z,20.20
2022-08-17T01:43:54.313Z,20.20
2022-08-17T01:46:27.514Z,20.00
2022-08-17T01:48:57.579Z,20.10
2022-08-17T01:51:27.415Z,20.10
2022-08-17T01:53:59.035Z,20.10
2022-08-17T01:56:31.102Z,20.20
2022-08-17T01:58:59.138Z,20.10
2022-08-17T02:01:29.725Z,20.20
2022-08-17T02:04:00.480Z,20.30
2022-08-17T02:06:53.698Z,20.30
2022-08-17T02:09:20.343Z,20.30
2022-08-17T02:11:55.097Z,20.40
2022-08-17T02:14:25.032Z,20.40
2022-08-17T02:16:59.867Z,20.20
2022-08-17T02:19:27.870Z,20.10
2022-08-17T02:21:56.418Z,20.10
2022-08-17T02:24:58.279Z,20.20
2022-08-17T02:27:17.309Z,20.10
2022-08-17T02:29:45.315Z,20.10
2022-08-17T02:32:27.595Z,20.00
2022-08-17T02:34:58.045Z,20.10
2022-08-17T02:37:26.441Z,20.00
2022-08-17T02:39:56.821Z,19.90
2022-08-17T02:42:31.405Z,19.90
2022-08-17T02:45:00.659Z,19.90
2022-08-17T02:47:29.724Z,20.00
2022-08-17T02:49:57.784Z,20.00
2022-08-17T02:52:42.505Z,20.00
2022-08-17T02:55:13.785Z,19.90
2022-08-17T02:57:43.180Z,19.80
2022-08-17T03:00:14.927Z,19.80
2022-08-17T03:02:44.716Z,19.70
2022-08-17T03:05:17.650Z,19.70
2022-08-17T03:07:45.760Z,19.70
2022-08-17T03:10:14.895Z,19.70
2022-08-17T03:12:46.128Z,19.60
2022-08-17T03:15:17.455Z,19.60
2022-08-17T03:17:45.538Z,19.70
2022-08-17T03:20:16.111Z,19.70
2022-08-17T03:22:48.069Z,19.70
2022-08-17T03:25:26.791Z,19.60
2022-08-17T03:27:56.977Z,19.50
2022-08-17T03:30:26.262Z,19.30
2022-08-17T03:32:59.944Z,19.50
2022-08-17T03:35:30.475Z,19.60
2022-08-17T03:38:00.784Z,19.60
2022-08-17T03:40:34.650Z,19.50
2022-08-17T03:43:21.059Z,19.60
2022-08-17T03:46:28.485Z,19.50
2022-08-17T03:49:12.469Z,19.50
2022-08-17T03:51:57.827Z,19.40
2022-08-17T03:54:43.396Z,19.30
2022-08-17T03:57:12.648Z,19.30
2022-08-17T03:59:42.364Z,19.30
2022-08-17T04:02:13.975Z,19.20
2022-08-17T04:04:42.165Z,19.20
2022-08-17T04:07:10.210Z,19.20
2022-08-17T04:09:38.182Z,19.30
2022-08-17T04:12:06.739Z,19.30
2022-08-17T04:14:51.475Z,19.40
2022-08-17T04:17:24.784Z,19.50
2022-08-17T04:19:53.187Z,19.60
2022-08-17T04:22:33.343Z,19.60
2022-08-17T04:25:10.434Z,19.50
2022-08-17T04:27:38.424Z,19.50
2022-08-17T04:30:07.962Z,19.50
2022-08-17T04:33:04.098Z,19.60
2022-08-17T04:35:36.423Z,19.60
2022-08-17T04:38:04.654Z,19.80
2022-08-17T04:40:50.640Z,19.80
2022-08-17T04:43:20.897Z,19.90
2022-08-17T04:45:56.143Z,19.90
2022-08-17T04:48:35.368Z,19.90
2022-08-17T04:51:05.819Z,19.90
2022-08-17T04:53:35.085Z,19.80
2022-08-17T04:56:03.538Z,19.70
2022-08-17T04:58:31.729Z,19.70
2022-08-17T05:01:00.027Z,19.80
2022-08-17T05:03:29.724Z,19.90
2022-08-17T05:05:57.913Z,20.10
2022-08-17T05:08:25.936Z,20.00
2022-08-17T05:10:54.042Z,20.30
2022-08-17T05:13:25.071Z,20.20
2022-08-17T05:15:57.682Z,20.40
2022-08-17T05:18:26.376Z,20.50
2022-08-17T05:20:56.131Z,20.60
2022-08-17T05:23:26.875Z,20.80
2022-08-17T05:26:07.909Z,20.90
2022-08-17T05:28:39.619Z,20.90
2022-08-17T05:31:07.967Z,21.00
2022-08-17T05:33:43.993Z,21.10
2022-08-17T05:36:43.482Z,21.20
2022-08-17T05:39:04.607Z,21.10
2022-08-17T05:41:32.584Z,21.10
2022-08-17T05:44:00.754Z,21.00
2022-08-17T05:46:41.005Z,21.00
2022-08-17T05:49:09.803Z,20.90
2022-08-17T05:52:01.061Z,20.80
2022-08-17T05:54:39.940Z,20.80
2022-08-17T05:57:33.472Z,20.70
2022-08-17T06:00:10.733Z,21.00
2022-08-17T06:02:48.953Z,21.10
2022-08-17T06:05:33.796Z,21.00
2022-08-17T06:08:13.136Z,21.00
2022-08-17T06:10:48.871Z,21.10
2022-08-17T06:13:30.728Z,21.30
2022-08-17T06:16:05.287Z,21.40
2022-08-17T06:18:58.956Z,21.50
2022-08-17T06:21:30.486Z,21.60
2022-08-17T06:24:06.823Z,21.50
2022-08-17T06:26:43.179Z,21.50
2022-08-17T06:29:20.698Z,21.70
2022-08-17T06:31:48.929Z,21.80
2022-08-17T06:34:16.965Z,22.00
2022-08-17T06:36:56.558Z,22.00
2022-08-17T06:39:45.860Z,22.10
2022-08-17T06:42:55.077Z,22.30
2022-08-17T06:45:16.949Z,22.40
2022-08-17T06:47:55.362Z,22.30
2022-08-17T06:50:36.437Z,22.20
2022-08-17T06:53:13.375Z,22.10
2022-08-17T06:55:48.277Z,22.10
2022-08-17T06:58:22.248Z,21.90
2022-08-17T07:00:59.143Z,21.90
2022-08-17T07:03:35.758Z,21.80
2022-08-17T07:06:08.166Z,21.70
2022-08-17T07:08:50.624Z,21.70
2022-08-17T07:11:31.472Z,21.90
2022-08-17T07:14:08.330Z,22.00
2022-08-17T07:16:42.284Z,22.10
2022-08-17T07:19:10.950Z,22.00
2022-08-17T07:21:58.311Z,21.90
2022-08-17T07:24:37.389Z,22.00
2022-08-17T07:27:14.778Z,22.10
2022-08-17T07:29:46.884Z,22.20
2022-08-17T07:32:18.779Z,22.30
2022-08-17T07:35:20.020Z,22.30
2022-08-17T07:37:54.116Z,22.40
2022-08-17T07:40:30.262Z,22.40
2022-08-17T07:43:21.949Z,22.30
2022-08-17T07:46:36.774Z,22.30
2022-08-17T07:49:33.742Z,22.30
2022-08-17T07:52:47.944Z,22.40
2022-08-17T07:54:54.470Z,22.40
2022-08-17T07:57:32.225Z,22.30
2022-08-17T08:00:31.723Z,22.20
2022-08-17T08:03:15.622Z,21.90
2022-08-17T08:05:53.189Z,21.70
2022-08-17T08:08:35.102Z,21.60
2022-08-17T08:11:07.419Z,21.50
2022-08-17T08:13:40.619Z,21.60
2022-08-17T08:16:27.269Z,21.50
2022-08-17T08:18:58.640Z,21.60
2022-08-17T08:21:36.794Z,21.50
2022-08-17T08:24:32.379Z,21.70
2022-08-17T08:27:10.766Z,21.90
2022-08-17T08:29:52.679Z,22.00
2022-08-17T08:32:38.771Z,22.20
2022-08-17T08:35:13.123Z,22.30
2022-08-17T08:37:49.397Z,22.50
2022-08-17T08:40:38.319Z,22.50
2022-08-17T08:43:18.899Z,22.60
2022-08-17T08:45:56.653Z,22.70
2022-08-17T08:48:56.797Z,22.60
2022-08-17T08:51:37.157Z,22.30
2022-08-17T08:54:10.614Z,22.20
2022-08-17T08:57:11.472Z,22.40
2022-08-17T08:59:41.864Z,22.10
2022-08-17T09:02:24.410Z,22.20
2022-08-17T09:05:14.433Z,21.90
2022-08-17T09:07:54.695Z,21.60
2022-08-17T09:10:30.956Z,21.40
2022-08-17T09:13:10.329Z,21.30
2022-08-17T09:15:43.549Z,21.10
2022-08-17T09:18:59.820Z,21.20
2022-08-17T09:21:15.239Z,21.20
2022-08-17T09:23:59.794Z,21.20
2022-08-17T09:26:32.802Z,21.40
2022-08-17T09:29:10.024Z,21.60
2022-08-17T09:31:49.445Z,22.00
2022-08-17T09:34:29.576Z,22.20
2022-08-17T09:37:17.756Z,22.60
2022-08-17T09:40:04.219Z,23.20
2022-08-17T09:42:37.421Z,23.40
2022-08-17T09:45:32.492Z,24.00
2022-08-17T09:48:07.249Z,24.30
2022-08-17T09:51:04.456Z,24.70
2022-08-17T09:53:33.081Z,24.80
2022-08-17T09:56:14.722Z,24.60
2022-08-17T09:58:56.394Z,24.40
2022-08-17T10:01:38.016Z,24.40
2022-08-17T10:04:32.046Z,24.60
2022-08-17T10:07:07.425Z,24.90
2022-08-17T10:09:55.494Z,25.00
2022-08-17T10:12:35.349Z,24.80
2022-08-17T10:15:18.948Z,24.60
2022-08-17T10:18:01.273Z,24.20
2022-08-17T10:20:47.438Z,24.40
2022-08-17T10:23:39.361Z,24.60
2022-08-17T10:26:15.739Z,24.90
2022-08-17T10:28:50.699Z,25.00
2022-08-17T10:31:34.126Z,24.80
2022-08-17T10:34:26.283Z,24.40
2022-08-17T10:37:01.162Z,24.60
2022-08-17T10:39:50.580Z,24.60
2022-08-17T10:42:32.204Z,24.40
2022-08-17T10:45:06.372Z,24.30
2022-08-17T10:48:04.334Z,24.10
2022-08-17T10:51:00.342Z,24.10
2022-08-17T10:53:50.920Z,24.30
2022-08-17T10:56:25.266Z,24.70
2022-08-17T10:58:56.222Z,24.70
2022-08-17T11:01:59.155Z,24.80
2022-08-17T11:04:43.260Z,25.00
2022-08-17T11:07:20.460Z,25.20
2022-08-17T11:10:10.588Z,25.20
2022-08-17T11:12:47.668Z,25.00
2022-08-17T11:15:27.676Z,25.00
2022-08-17T11:18:22.410Z,25.20
2022-08-17T11:21:11.858Z,25.50
2022-08-17T11:23:56.992Z,25.70
2022-08-17T11:26:29.366Z,25.90
2022-08-17T11:29:01.690Z,25.90
2022-08-17T11:31:38.417Z,26.10
2022-08-17T11:34:15.124Z,26.30
2022-08-17T11:37:09.175Z,26.30
2022-08-17T11:40:01.106Z,26.50
2022-08-17T11:42:40.597Z,26.40
2022-08-17T11:45:33.124Z,26.80
2022-08-17T11:48:32.817Z,26.90
2022-08-17T11:51:29.810Z,27.10
2022-08-17T11:54:31.143Z,27.10
2022-08-17T11:56:54.188Z,27.40
2022-08-17T11:59:58.757Z,27.30
2022-08-17T12:02:38.886Z,27.00
2022-08-17T12:05:34.289Z,26.80
2022-08-17T12:08:17.754Z,26.70
2022-08-17T12:11:01.171Z,26.60
2022-08-17T12:13:39.389Z,26.70
2022-08-17T12:16:11.105Z,27.00
2022-08-17T12:18:42.173Z,27.00
2022-08-17T12:21:25.895Z,27.00
2022-08-17T12:23:58.805Z,27.20
2022-08-17T12:26:31.659Z,27.60
2022-08-17T12:29:03.720Z,28.00
2022-08-17T12:31:43.330Z,28.00
2022-08-17T12:34:18.696Z,28.30
2022-08-17T12:36:50.967Z,28.10
2022-08-17T12:39:22.170Z,27.50
2022-08-17T12:42:01.948Z,27.30
2022-08-17T12:44:32.887Z,27.40
2022-08-17T12:47:06.931Z,27.60
2022-08-17T12:49:37.238Z,28.10
2022-08-17T12:52:16.286Z,28.40
2022-08-17T12:54:53.950Z,28.80
2022-08-17T12:57:28.391Z,29.00
2022-08-17T13:00:00.258Z,28.90
2022-08-17T13:02:46.927Z,28.70
2022-08-17T13:05:25.435Z,28.80
2022-08-17T13:07:58.463Z,28.90
2022-08-17T13:10:33.088Z,28.80
2022-08-17T13:13:05.349Z,29.10
2022-08-17T13:15:38.611Z,29.30
2022-08-17T13:18:36.621Z,29.50
2022-08-17T13:21:05.124Z,29.30
2022-08-17T13:23:34.818Z,29.30
2022-08-17T13:26:08.125Z,29.10
2022-08-17T13:28:37.676Z,28.70
2022-08-17T13:31:23.999Z,28.40
2022-08-17T13:33:53.407Z,28.50
2022-08-17T13:36:33.651Z,28.70
2022-08-17T13:39:13.868Z,29.40
2022-08-17T13:41:44.135Z,29.90
2022-08-17T13:44:53.742Z,29.90
2022-08-17T13:47:24.601Z,29.80
2022-08-17T13:49:53.196Z,29.60
2022-08-17T13:52:39.161Z,29.60
2022-08-17T13:55:20.537Z,29.70
2022-08-17T13:58:06.514Z,29.50
2022-08-17T14:00:37.373Z,29.20
2022-08-17T14:03:06.759Z,29.70
2022-08-17T14:05:38.046Z,29.60
2022-08-17T14:08:07.483Z,29.20
2022-08-17T14:10:36.933Z,29.00
2022-08-17T14:13:05.661Z,29.10
2022-08-17T14:15:54.854Z,29.00
2022-08-17T14:18:41.969Z,29.60
2022-08-17T14:21:13.153Z,29.70
2022-08-17T14:23:41.966Z,29.80
2022-08-17T14:26:19.931Z,30.00
2022-08-17T14:28:56.197Z,30.10
2022-08-17T14:31:28.189Z,30.00
2022-08-17T14:33:59.502Z,29.80
2022-08-17T14:36:27.542Z,30.00
2022-08-17T14:38:56.397Z,29.00
2022-08-17T14:41:26.198Z,29.40
2022-08-17T14:43:54.136Z,29.90
2022-08-17T14:46:23.985Z,29.90
2022-08-17T14:48:57.081Z,29.70
2022-08-17T14:51:27.524Z,29.70
2022-08-17T14:53:57.212Z,30.20
2022-08-17T14:56:27.282Z,30.50
2022-08-17T14:58:59.760Z,30.60
2022-08-17T15:01:30.863Z,30.60
2022-08-17T15:04:01.083Z,30.70
2022-08-17T15:06:29.722Z,30.70
2022-08-17T15:08:57.998Z,30.50
2022-08-17T15:11:29.900Z,30.30
2022-08-17T15:13:58.544Z,30.30
2022-08-17T15:16:27.335Z,29.80
2022-08-17T15:18:55.396Z,29.90
2022-08-17T15:21:23.473Z,30.00
2022-08-17T15:23:51.669Z,30.00
2022-08-17T15:26:24.191Z,29.90
2022-08-17T15:28:56.700Z,30.10
2022-08-17T15:31:32.156Z,30.20
2022-08-17T15:34:01.655Z,30.00
2022-08-17T15:36:30.040Z,30.00
2022-08-17T15:39:01.365Z,29.90
2022-08-17T15:41:32.917Z,29.80
2022-08-17T15:44:02.952Z,29.90
2022-08-17T15:46:31.518Z,30.20
2022-08-17T15:49:08.454Z,30.30
2022-08-17T15:51:38.404Z,30.00
2022-08-17T15:54:19.159Z,29.90
2022-08-17T15:56:51.034Z,29.60
2022-08-17T15:59:21.124Z,29.60
2022-08-17T16:03:15.986Z,29.60
2022-08-17T16:04:44.036Z,29.70
2022-08-17T16:07:13.533Z,29.80
2022-08-17T16:09:42.147Z,29.80
2022-08-17T16:12:12.911Z,29.80
2022-08-17T16:14:43.989Z,29.80
2022-08-17T16:17:40.260Z,29.80
2022-08-17T16:20:01.998Z,29.80
2022-08-17T16:22:35.022Z,29.80
2022-08-17T16:25:05.392Z,29.60
2022-08-17T16:27:33.632Z,29.70
2022-08-17T16:30:04.724Z,29.70
2022-08-17T16:32:33.085Z,29.60
2022-08-17T16:35:04.119Z,29.70
2022-08-17T16:37:34.278Z,30.10
2022-08-17T16:40:03.379Z,30.50
2022-08-17T16:42:34.033Z,30.70
2022-08-17T16:45:07.584Z,30.80
2022-08-17T16:47:35.779Z,30.70
2022-08-17T16:50:04.696Z,30.40
2022-08-17T16:52:34.031Z,30.70
2022-08-17T16:55:03.756Z,30.90
2022-08-17T16:57:32.122Z,30.80
2022-08-17T17:00:00.199Z,30.70
2022-08-17T17:02:32.711Z,30.90
2022-08-17T17:05:08.296Z,31.10
2022-08-17T17:07:53.589Z,31.10
2022-08-17T17:10:27.478Z,31.20
2022-08-17T17:13:01.985Z,31.30
2022-08-17T17:15:47.567Z,31.30
2022-08-17T17:18:18.001Z,31.20
2022-08-17T17:20:53.863Z,31.10
2022-08-17T17:23:44.994Z,31.00
2022-08-17T17:26:23.053Z,30.90
2022-08-17T17:29:09.071Z,31.50
2022-08-17T17:31:45.844Z,31.70
2022-08-17T17:34:18.449Z,31.70
2022-08-17T17:36:51.938Z,31.40
2022-08-17T17:39:43.586Z,31.40
2022-08-17T17:42:14.673Z,31.50
2022-08-17T17:44:52.388Z,31.40
2022-08-17T17:47:24.472Z,30.50
2022-08-17T17:49:54.341Z,29.60
2022-08-17T17:52:28.874Z,29.10
2022-08-17T17:55:07.387Z,28.90
2022-08-17T17:57:57.863Z,28.60
2022-08-17T18:00:32.135Z,28.40
2022-08-17T18:03:20.722Z,28.20
2022-08-17T18:06:15.093Z,28.00
2022-08-17T18:08:56.043Z,28.00
2022-08-17T18:11:54.317Z,27.90
2022-08-17T18:14:38.207Z,27.90
2022-08-17T18:17:08.253Z,27.70
2022-08-17T18:19:39.959Z,27.50
2022-08-17T18:22:14.391Z,27.50
2022-08-17T18:24:44.675Z,27.30
2022-08-17T18:27:25.226Z,27.20
2022-08-17T18:29:54.856Z,27.20
2022-08-17T18:32:32.783Z,27.10
2022-08-17T18:35:27.856Z,27.00
2022-08-17T18:38:21.404Z,26.90
2022-08-17T18:41:05.370Z,26.80
2022-08-17T18:43:43.789Z,26.70
2022-08-17T18:46:30.194Z,26.60
2022-08-17T18:49:01.236Z,26.40
2022-08-17T18:51:40.832Z,26.20
2022-08-17T18:54:23.032Z,26.20
2022-08-17T18:56:55.289Z,26.20
2022-08-17T18:59:35.472Z,26.10
2022-08-17T19:02:45.799Z,26.20
2022-08-17T19:05:13.447Z,25.90
2022-08-17T19:07:45.150Z,25.80
2022-08-17T19:10:24.490Z,25.70
2022-08-17T19:13:12.253Z,25.60
2022-08-17T19:15:46.511Z,25.60
2022-08-17T19:18:39.443Z,25.50
2022-08-17T19:21:11.687Z,25.60
2022-08-17T19:23:53.930Z,25.30
2022-08-17T19:26:53.743Z,25.30
2022-08-17T19:29:19.455Z,25.10
2022-08-17T19:31:51.182Z,25.00
2022-08-17T19:34:33.370Z,25.00
2022-08-17T19:37:08.944Z,24.90
2022-08-17T19:39:46.720Z,24.90
2022-08-17T19:42:31.157Z,24.70
2022-08-17T19:45:05.640Z,24.70
2022-08-17T19:47:54.761Z,24.80
2022-08-17T19:50:38.465Z,24.90
2022-08-17T19:53:24.129Z,24.90
2022-08-17T19:56:02.963Z,25.00
2022-08-17T19:58:48.780Z,24.90
2022-08-17T20:01:28.812Z,24.50
2022-08-17T20:04:08.988Z,24.50
2022-08-17T20:06:40.984Z,24.30
2022-08-17T20:09:19.204Z,24.00
2022-08-17T20:11:51.626Z,23.80
2022-08-17T20:14:26.541Z,23.90
2022-08-17T20:17:00.514Z,24.10
2022-08-17T20:19:41.342Z,24.10
2022-08-17T20:22:15.911Z,24.20
2022-08-17T20:24:53.749Z,24.30
2022-08-17T20:27:31.497Z,24.30
2022-08-17T20:30:09.235Z,24.00
2022-08-17T20:32:52.013Z,23.70
2022-08-17T20:35:26.140Z,23.40
2022-08-17T20:38:02.212Z,23.30
2022-08-17T20:40:33.994Z,23.20
2022-08-17T20:43:40.509Z,23.20
2022-08-17T20:46:26.647Z,23.10
2022-08-17T20:48:59.614Z,23.10
2022-08-17T20:51:32.372Z,23.20
2022-08-17T20:54:28.710Z,23.40
2022-08-17T20:57:02.755Z,23.40
2022-08-17T21:00:01.317Z,23.20
2022-08-17T21:02:32.222Z,23.00
2022-08-17T21:05:26.291Z,22.90
2022-08-17T21:08:04.673Z,23.20
2022-08-17T21:10:38.819Z,23.20
2022-08-17T21:13:46.114Z,23.30
2022-08-17T21:16:37.087Z,23.30
2022-08-17T21:19:22.797Z,23.10
2022-08-17T21:22:03.818Z,23.00
2022-08-17T21:24:45.020Z,22.90
2022-08-17T21:27:28.732Z,22.90
2022-08-17T21:30:23.494Z,22.80
2022-08-17T21:33:18.364Z,22.80
2022-08-17T21:35:58.565Z,23.00
2022-08-17T21:38:36.385Z,23.10
2022-08-17T21:41:04.907Z,23.10
2022-08-17T21:43:37.445Z,23.10
2022-08-17T21:46:09.819Z,23.10
2022-08-17T21:48:44.594Z,23.00
2022-08-17T21:51:20.721Z,22.90
2022-08-17T21:53:52.119Z,22.90
2022-08-17T21:56:26.808Z,22.90
2022-08-17T21:58:59.214Z,22.90
2022-08-17T22:01:29.307Z,22.90
2022-08-17T22:04:08.575Z,23.00
2022-08-17T22:06:40.906Z,23.10
2022-08-17T22:09:17.176Z,23.10
2022-08-17T22:12:00.786Z,23.10
2022-08-17T22:14:51.551Z,23.20
2022-08-17T22:17:23.978Z,23.20
2022-08-17T22:19:55.084Z,23.10
2022-08-17T22:22:55.667Z,23.20
2022-08-17T22:25:25.757Z,23.20
2022-08-17T22:27:57.462Z,23.20
2022-08-17T22:30:36.363Z,23.10
2022-08-17T22:33:40.293Z,23.10
2022-08-17T22:36:29.575Z,23.20
2022-08-17T22:39:00.550Z,23.20
2022-08-17T22:41:45.558Z,23.20
2022-08-17T22:44:35.583Z,23.10
2022-08-17T22:47:11.193Z,23.20
2022-08-17T22:49:53.382Z,23.10
2022-08-17T22:52:57.057Z,23.10
2022-08-17T22:55:59.828Z,23.00
2022-08-17T22:58:59.048Z,23.10
2022-08-17T23:01:30.127Z,23.00
2022-08-17T23:04:01.729Z,23.00
2022-08-17T23:06:32.633Z,23.00
2022-08-17T23:09:04.119Z,22.90
2022-08-17T23:11:48.615Z,22.90
2022-08-17T23:14:20.399Z,22.90
2022-08-17T23:17:07.305Z,22.90
2022-08-17T23:19:35.737Z,22.80
2022-08-17T23:22:05.994Z,22.80
2022-08-17T23:24:41.711Z,22.80
2022-08-17T23:27:11.504Z,22.80
2022-08-17T23:29:42.379Z,22.80
2022-08-17T23:32:14.735Z,22.70
2022-08-17T23:34:44.547Z,22.70
2022-08-17T23:37:13.208Z,22.70
2022-08-17T23:39:42.580Z,22.60
2022-08-17T23:42:15.929Z,22.60
2022-08-17T23:44:44.095Z,22.60
2022-08-17T23:47:12.516Z,22.50
2022-08-17T23:49:41.370Z,22.50
2022-08-17T23:52:12.565Z,22.40
2022-08-17T23:54:47.957Z,22.40
2022-08-17T23:57:20.567Z,22.50
